createdAt,value
2022-12-24T00:01:03.394Z,20.3
2022-12-24T00:02:10.567Z,19.7
2022-12-24T00:03:17.884Z,19
2022-12-24T00:04:24.612Z,18.9
2022-12-24T00:05:31.743Z,18.1
2022-12-24T00:06:38.868Z,18.6
2022-12-24T00:07:46.053Z,21
2022-12-24T00:08:53.265Z,19.7
2022-12-24T00:10:00.437Z,20.5
2022-12-24T00:11:07.699Z,22.6
2022-12-24T00:12:14.755Z,20.9
2022-12-24T00:13:21.816Z,20.9
2022-12-24T00:14:28.714Z,21.6
2022-12-24T00:15:35.832Z,20.8
2022-12-24T00:16:43.109Z,20.3
2022-12-24T00:17:50.211Z,19.4
2022-12-24T00:18:57.408Z,18.5
2022-12-24T00:20:04.521Z,18.1
2022-12-24T00:21:11.684Z,18.2
2022-12-24T00:22:18.806Z,18.3
2022-12-24T00:23:25.670Z,17.3
2022-12-24T00:24:32.856Z,17.8
2022-12-24T00:25:40.011Z,17.8
2022-12-24T00:26:47.094Z,16.1
2022-12-24T00:27:54.255Z,17
2022-12-24T00:29:01.449Z,16.8
2022-12-24T00:30:08.731Z,17.9
2022-12-24T00:31:15.909Z,16.9
2022-12-24T00:32:22.913Z,17.3
2022-12-24T00:33:30.256Z,15.8
2022-12-24T00:34:37.434Z,16.2
2022-12-24T00:35:44.579Z,17.4
2022-12-24T00:36:51.837Z,16.2
2022-12-24T00:37:59.043Z,16.1
2022-12-24T00:39:06.039Z,16.3
2022-12-24T00:40:13.304Z,16.9
2022-12-24T00:41:20.369Z,18.3
2022-12-24T00:42:30.331Z,18.5
2022-12-24T00:43:37.466Z,18.1
2022-12-24T00:44:44.714Z,14.1
2022-12-24T00:45:51.887Z,13.4
2022-12-24T00:46:58.942Z,11.2
2022-12-24T00:48:06.201Z,12.9
2022-12-24T00:49:13.294Z,14
2022-12-24T00:50:20.526Z,11.8
2022-12-24T00:51:28.032Z,12
2022-12-24T00:52:34.951Z,11.5
2022-12-24T00:53:42.165Z,12.6
2022-12-24T00:54:49.270Z,12.5
2022-12-24T00:55:56.515Z,11.4
2022-12-24T00:57:03.749Z,11.6
2022-12-24T00:58:10.860Z,12
2022-12-24T00:59:17.934Z,11.3
2022-12-24T01:00:24.831Z,11.1
2022-12-24T01:01:32.133Z,12.9
2022-12-24T01:02:39.427Z,11.6
2022-12-24T01:03:46.471Z,12.3
2022-12-24T01:04:53.534Z,12.1
2022-12-24T01:06:05.971Z,12
2022-12-24T01:07:18.533Z,11.5
2022-12-24T01:08:25.383Z,12.6
2022-12-24T01:09:32.605Z,13.9
2022-12-24T01:10:39.688Z,12.6
2022-12-24T01:11:46.884Z,11.8
2022-12-24T01:12:53.949Z,12.8
2022-12-24T01:14:01.232Z,13
2022-12-24T01:15:08.396Z,12.5
2022-12-24T01:16:15.590Z,13.4
2022-12-24T01:17:22.617Z,14
2022-12-24T01:18:29.486Z,13.1
2022-12-24T01:19:36.661Z,13
2022-12-24T01:20:43.856Z,11.3
2022-12-24T01:21:51.028Z,11.7
2022-12-24T01:22:58.105Z,13
2022-12-24T01:24:05.376Z,13.2
2022-12-24T01:25:12.477Z,11.8
2022-12-24T01:26:19.577Z,10.8
2022-12-24T01:27:26.635Z,10.4
2022-12-24T01:28:33.751Z,10.9
2022-12-24T01:29:40.821Z,10.3
2022-12-24T01:30:47.989Z,11.4
2022-12-24T01:31:55.141Z,10.9
2022-12-24T01:33:02.244Z,11.7
2022-12-24T01:34:09.484Z,11.1
2022-12-24T01:35:16.604Z,11.1
2022-12-24T01:36:23.414Z,11.4
2022-12-24T01:37:30.561Z,11
2022-12-24T01:38:37.757Z,11.2
2022-12-24T01:39:44.902Z,10.4
2022-12-24T01:40:52.177Z,12.7
2022-12-24T01:42:04.386Z,11.2
2022-12-24T01:43:21.759Z,12.8
2022-12-24T01:44:35.451Z,14.1
2022-12-24T01:45:36.114Z,11.7
2022-12-24T01:46:53.946Z,11.5
2022-12-24T01:48:11.102Z,11.5
2022-12-24T01:49:26.147Z,15.1
2022-12-24T01:50:33.367Z,13.5
2022-12-24T01:51:40.478Z,13.8
2022-12-24T01:52:47.653Z,15
2022-12-24T01:53:54.783Z,12.6
2022-12-24T01:55:01.992Z,12.7
2022-12-24T01:56:09.279Z,12.2
2022-12-24T01:57:16.274Z,11.1
2022-12-24T01:58:28.863Z,10
2022-12-24T01:59:35.912Z,9.7
2022-12-24T02:00:43.079Z,9.2
2022-12-24T02:01:50.422Z,9.9
2022-12-24T02:02:57.537Z,9.2
2022-12-24T02:04:04.487Z,8.6
2022-12-24T02:05:11.796Z,9.4
2022-12-24T02:06:29.271Z,9.4
2022-12-24T02:07:36.420Z,10
2022-12-24T02:08:43.631Z,8
2022-12-24T02:09:50.841Z,8.7
2022-12-24T02:10:57.977Z,8.7
2022-12-24T02:12:05.234Z,9.9
2022-12-24T02:13:12.138Z,8.5
2022-12-24T02:14:19.299Z,9.4
2022-12-24T02:15:26.224Z,9.3
2022-12-24T02:16:33.518Z,9.4
2022-12-24T02:17:48.150Z,8.8
2022-12-24T02:19:01.400Z,8.6
2022-12-24T02:20:13.799Z,8
2022-12-24T02:21:31.201Z,9.5
2022-12-24T02:22:43.490Z,8.9
2022-12-24T02:24:00.976Z,8.3
2022-12-24T02:25:15.757Z,8.6
2022-12-24T02:26:30.289Z,9
2022-12-24T02:27:42.563Z,8.1
2022-12-24T02:28:52.249Z,8.6
2022-12-24T02:30:09.621Z,9.3
2022-12-24T02:31:22.081Z,9.5
2022-12-24T02:32:31.898Z,9.3
2022-12-24T02:33:44.674Z,11.2
2022-12-24T02:34:59.430Z,9.7
2022-12-24T02:36:09.665Z,10.3
2022-12-24T02:37:16.797Z,12
2022-12-24T02:38:26.183Z,11.6
2022-12-24T02:39:35.922Z,11
2022-12-24T02:40:48.698Z,11.4
2022-12-24T02:41:58.922Z,12.9
2022-12-24T02:43:11.407Z,13.5
2022-12-24T02:44:18.334Z,12.2
2022-12-24T02:45:25.677Z,12.6
2022-12-24T02:46:32.919Z,13.1
2022-12-24T02:47:40.046Z,13
2022-12-24T02:48:47.183Z,12.1
2022-12-24T02:49:54.465Z,13.1
2022-12-24T02:51:01.529Z,13.7
2022-12-24T02:52:08.669Z,12.8
2022-12-24T02:53:26.209Z,11.8
2022-12-24T02:54:33.641Z,12.7
2022-12-24T02:55:40.521Z,12.3
2022-12-24T02:56:47.813Z,12.6
2022-12-24T02:58:00.591Z,13.3
2022-12-24T02:59:12.864Z,13.3
2022-12-24T03:00:30.373Z,13.8
2022-12-24T03:01:47.826Z,11.4
2022-12-24T03:03:05.157Z,12.3
2022-12-24T03:04:22.451Z,13.1
2022-12-24T03:05:34.840Z,11.7
2022-12-24T03:06:47.645Z,12.7
2022-12-24T03:08:02.463Z,11.1
2022-12-24T03:09:09.745Z,10.6
2022-12-24T03:10:27.153Z,12.4
2022-12-24T03:11:39.954Z,11.9
2022-12-24T03:12:47.139Z,12.4
2022-12-24T03:13:54.288Z,12.1
2022-12-24T03:15:01.525Z,13.4
2022-12-24T03:16:09.204Z,13.6
2022-12-24T03:17:16.381Z,12.5
2022-12-24T03:18:23.404Z,12.3
2022-12-24T03:19:30.265Z,11
2022-12-24T03:20:37.511Z,13.9
2022-12-24T03:21:47.720Z,12.9
2022-12-24T03:22:54.874Z,12.1
2022-12-24T03:24:02.060Z,11.6
2022-12-24T03:25:09.192Z,13.3
2022-12-24T03:26:16.349Z,13.3
2022-12-24T03:27:23.528Z,12
2022-12-24T03:28:30.420Z,12.3
2022-12-24T03:29:37.561Z,12.8
2022-12-24T03:30:44.776Z,12.8
2022-12-24T03:31:52.112Z,14.6
2022-12-24T03:32:59.024Z,13.8
2022-12-24T03:34:06.187Z,13.9
2022-12-24T03:35:13.360Z,13.2
2022-12-24T03:36:20.517Z,13.9
2022-12-24T03:37:27.489Z,14.8
2022-12-24T03:38:34.464Z,15.6
2022-12-24T03:39:41.701Z,14.8
2022-12-24T03:40:48.864Z,14.5
2022-12-24T03:41:55.995Z,13.9
2022-12-24T03:43:03.176Z,14.7
2022-12-24T03:44:10.400Z,13.2
2022-12-24T03:45:17.454Z,14.5
2022-12-24T03:46:24.456Z,13.7
2022-12-24T03:47:31.465Z,13.9
2022-12-24T03:48:38.637Z,14.7
2022-12-24T03:49:45.862Z,12.9
2022-12-24T03:50:53.095Z,12.2
2022-12-24T03:52:00.094Z,14.2
2022-12-24T03:53:07.300Z,11.8
2022-12-24T03:54:14.455Z,14
2022-12-24T03:55:21.551Z,12
2022-12-24T03:56:28.434Z,12.7
2022-12-24T03:57:35.484Z,13.2
2022-12-24T03:58:42.723Z,12
2022-12-24T03:59:49.902Z,13.9
2022-12-24T04:00:57.113Z,12.4
2022-12-24T04:02:04.407Z,13.4
2022-12-24T04:03:11.423Z,13
2022-12-24T04:04:18.528Z,14
2022-12-24T04:05:25.384Z,13.5
2022-12-24T04:06:32.526Z,13.5
2022-12-24T04:07:39.696Z,13.2
2022-12-24T04:08:46.860Z,14.5
2022-12-24T04:09:54.087Z,14.1
2022-12-24T04:11:04.809Z,13
2022-12-24T04:12:08.400Z,13.8
2022-12-24T04:13:15.512Z,15.5
2022-12-24T04:14:22.692Z,15.1
2022-12-24T04:15:29.624Z,14.8
2022-12-24T04:16:36.939Z,14.6
2022-12-24T04:17:43.863Z,13.7
2022-12-24T04:18:50.992Z,13.7
2022-12-24T04:19:58.373Z,15.4
2022-12-24T04:21:05.613Z,13.4
2022-12-24T04:22:12.623Z,15.4
2022-12-24T04:23:19.602Z,15.6
2022-12-24T04:24:26.436Z,17.2
2022-12-24T04:25:33.680Z,17.7
2022-12-24T04:26:40.783Z,16.3
2022-12-24T04:27:47.935Z,17.6
2022-12-24T04:28:55.206Z,15.3
2022-12-24T04:30:02.325Z,16.5
2022-12-24T04:31:10.059Z,17.2
2022-12-24T04:32:17.255Z,15
2022-12-24T04:33:24.031Z,17.1
2022-12-24T04:34:31.084Z,14.8
2022-12-24T04:35:38.291Z,15.6
2022-12-24T04:36:45.468Z,14.2
2022-12-24T04:37:52.591Z,13.4
2022-12-24T04:38:59.710Z,12.5
2022-12-24T04:40:06.956Z,14.3
2022-12-24T04:41:20.671Z,14.8
2022-12-24T04:42:21.357Z,13
2022-12-24T04:43:28.736Z,14
2022-12-24T04:44:35.772Z,13.1
2022-12-24T04:45:42.982Z,13
2022-12-24T04:46:50.065Z,13.1
2022-12-24T04:47:57.353Z,11.6
2022-12-24T04:49:04.407Z,12.7
2022-12-24T04:50:11.497Z,12.5
2022-12-24T04:51:18.740Z,13.1
2022-12-24T04:52:25.504Z,13.2
2022-12-24T04:53:32.698Z,12
2022-12-24T04:54:40.064Z,13.9
2022-12-24T04:55:47.015Z,13.3
2022-12-24T04:56:54.310Z,13.5
2022-12-24T04:58:01.305Z,13.8
2022-12-24T04:59:08.562Z,13.1
2022-12-24T05:00:15.749Z,12.8
2022-12-24T05:01:23.105Z,12.7
2022-12-24T05:02:30.489Z,13.9
2022-12-24T05:03:37.411Z,13
2022-12-24T05:04:44.672Z,13.1
2022-12-24T05:05:55.171Z,11.8
2022-12-24T05:06:58.907Z,13.2
2022-12-24T05:08:06.240Z,15.1
2022-12-24T05:09:13.303Z,13
2022-12-24T05:10:20.377Z,13.7
2022-12-24T05:11:27.266Z,11.5
2022-12-24T05:12:34.424Z,12.8
2022-12-24T05:13:46.439Z,11.5
2022-12-24T05:14:48.888Z,12.9
2022-12-24T05:15:55.976Z,13.7
2022-12-24T05:17:03.093Z,12.5
2022-12-24T05:18:10.437Z,12.8
2022-12-24T05:19:17.309Z,12.6
2022-12-24T05:20:24.192Z,12.5
2022-12-24T05:21:31.420Z,13.9
2022-12-24T05:22:38.562Z,14.9
2022-12-24T05:23:51.621Z,12.1
2022-12-24T05:25:03.573Z,12.5
2022-12-24T05:26:15.845Z,11.3
2022-12-24T05:27:31.057Z,11.9
2022-12-24T05:28:38.053Z,11.2
2022-12-24T05:29:45.171Z,12.5
2022-12-24T05:30:52.463Z,13.5
2022-12-24T05:31:59.546Z,12.5
2022-12-24T05:33:06.660Z,14.3
2022-12-24T05:34:13.804Z,16.3
2022-12-24T05:35:20.972Z,18.3
2022-12-24T05:36:27.833Z,18.6
2022-12-24T05:37:34.989Z,20.9
2022-12-24T05:38:42.241Z,19.4
2022-12-24T05:39:49.291Z,17.8
2022-12-24T05:40:56.438Z,18.1
2022-12-24T05:42:03.618Z,16.3
2022-12-24T05:43:10.759Z,17.2
2022-12-24T05:44:17.908Z,16
2022-12-24T05:45:24.841Z,15.5
2022-12-24T05:46:32.186Z,16.6
2022-12-24T05:47:43.158Z,15
2022-12-24T05:48:46.228Z,16.3
2022-12-24T05:49:54.328Z,13.9
2022-12-24T05:51:01.561Z,15.4
2022-12-24T05:52:08.816Z,14.4
2022-12-24T05:53:16.012Z,15
2022-12-24T05:54:22.905Z,15.3
2022-12-24T05:55:29.879Z,16.7
2022-12-24T05:56:36.938Z,16.8
2022-12-24T05:57:44.152Z,17.6
2022-12-24T05:58:51.292Z,18.8
2022-12-24T05:59:58.420Z,17.5
2022-12-24T06:01:05.621Z,17.4
2022-12-24T06:02:13.649Z,18.3
2022-12-24T06:03:20.859Z,17.1
2022-12-24T06:04:29.064Z,20.5
2022-12-24T06:05:34.911Z,20.1
2022-12-24T06:06:42.030Z,19.2
2022-12-24T06:07:49.195Z,22
2022-12-24T06:08:56.360Z,18.4
2022-12-24T06:10:03.552Z,19.4
2022-12-24T06:11:11.219Z,19.6
2022-12-24T06:12:18.706Z,21.9
2022-12-24T06:13:25.729Z,18.7
2022-12-24T06:14:32.871Z,19.6
2022-12-24T06:15:40.078Z,19
2022-12-24T06:16:47.191Z,20.4
2022-12-24T06:17:54.320Z,19.1
2022-12-24T06:19:01.521Z,19.1
2022-12-24T06:20:08.669Z,20.2
2022-12-24T06:21:15.760Z,18.4
2022-12-24T06:22:22.971Z,19.1
2022-12-24T06:23:29.789Z,20
2022-12-24T06:24:36.967Z,20.1
2022-12-24T06:25:44.274Z,20.7
2022-12-24T06:26:51.189Z,20.2
2022-12-24T06:27:58.410Z,20.4
2022-12-24T06:29:05.557Z,22.1
2022-12-24T06:30:12.641Z,21.9
2022-12-24T06:31:20.026Z,19.9
2022-12-24T06:32:27.239Z,19.5
2022-12-24T06:33:34.362Z,20
2022-12-24T06:34:41.507Z,19.5
2022-12-24T06:35:48.698Z,17.8
2022-12-24T06:36:55.787Z,19.8
2022-12-24T06:38:02.962Z,18.5
2022-12-24T06:39:10.215Z,18.5
2022-12-24T06:40:17.268Z,17.8
2022-12-24T06:41:24.073Z,18.1
2022-12-24T06:42:31.227Z,20.2
2022-12-24T06:43:38.442Z,19.3
2022-12-24T06:44:50.703Z,21.8
2022-12-24T06:45:57.896Z,22.9
2022-12-24T06:47:05.114Z,22.2
2022-12-24T06:48:12.182Z,20.9
2022-12-24T06:49:19.253Z,20
2022-12-24T06:50:26.044Z,20.7
2022-12-24T06:51:33.226Z,21
2022-12-24T06:52:40.443Z,19.9
2022-12-24T06:53:47.626Z,20.2
2022-12-24T06:54:54.704Z,22
2022-12-24T06:56:01.895Z,22.7
2022-12-24T06:57:09.044Z,23.7
2022-12-24T06:58:16.095Z,22.6
2022-12-24T06:59:23.335Z,23.2
2022-12-24T07:00:30.275Z,22.4
2022-12-24T07:01:37.371Z,21.3
2022-12-24T07:02:44.586Z,19.7
2022-12-24T07:03:51.608Z,22.9
2022-12-24T07:04:58.731Z,21.7
2022-12-24T07:06:05.975Z,22.8
2022-12-24T07:07:23.248Z,23.7
2022-12-24T07:08:30.120Z,21
2022-12-24T07:09:37.255Z,22.8
2022-12-24T07:10:47.647Z,24.5
2022-12-24T07:11:51.922Z,24.7
2022-12-24T07:12:58.740Z,22.5
2022-12-24T07:14:05.895Z,23.6
2022-12-24T07:15:13.036Z,21.1
2022-12-24T07:16:20.328Z,23
2022-12-24T07:17:27.340Z,21.1
2022-12-24T07:18:34.254Z,20.1
2022-12-24T07:19:41.455Z,20.9
2022-12-24T07:20:48.898Z,20
2022-12-24T07:21:55.734Z,19.3
2022-12-24T07:23:02.493Z,19.8
2022-12-24T07:24:09.670Z,19.9
2022-12-24T07:25:16.705Z,21.4
2022-12-24T07:26:23.905Z,23.1
2022-12-24T07:27:30.742Z,22.5
2022-12-24T07:28:37.865Z,20.4
2022-12-24T07:29:45.085Z,22.4
2022-12-24T07:30:52.149Z,23.2
2022-12-24T07:31:59.372Z,23
2022-12-24T07:33:06.521Z,20.3
2022-12-24T07:34:13.637Z,21.8
2022-12-24T07:35:20.835Z,21.3
2022-12-24T07:36:27.927Z,18.9
2022-12-24T07:37:35.025Z,20.8
2022-12-24T07:38:41.971Z,20.3
2022-12-24T07:39:49.242Z,20.4
2022-12-24T07:40:56.478Z,18.1
2022-12-24T07:42:03.571Z,18.6
2022-12-24T07:43:10.837Z,21.4
2022-12-24T07:44:18.564Z,19.7
2022-12-24T07:45:25.625Z,23.9
2022-12-24T07:46:32.795Z,19.5
2022-12-24T07:47:39.894Z,22.7
2022-12-24T07:48:47.147Z,24.2
2022-12-24T07:49:54.352Z,21.9
2022-12-24T07:51:01.404Z,22.7
2022-12-24T07:52:08.575Z,24.9
2022-12-24T07:53:15.750Z,24.3
2022-12-24T07:54:23.016Z,23.5
2022-12-24T07:55:30.275Z,26.2
2022-12-24T07:56:37.523Z,25.1
2022-12-24T07:57:44.581Z,25.3
2022-12-24T07:58:51.780Z,30.4
2022-12-24T07:59:58.873Z,27.5
2022-12-24T08:01:06.052Z,28.5
2022-12-24T08:02:18.037Z,27.2
2022-12-24T08:03:20.389Z,25.8
2022-12-24T08:04:27.298Z,27.2
2022-12-24T08:05:34.280Z,26.2
2022-12-24T08:06:41.438Z,24.2
2022-12-24T08:07:48.624Z,28
2022-12-24T08:08:55.782Z,28.7
2022-12-24T08:10:03.030Z,26.1
2022-12-24T08:11:10.589Z,27.1
2022-12-24T08:12:17.761Z,28.2
2022-12-24T08:13:24.674Z,26.8
2022-12-24T08:14:31.808Z,30.5
2022-12-24T08:15:39.221Z,33
2022-12-24T08:16:46.369Z,36.1
2022-12-24T08:17:53.261Z,35
2022-12-24T08:19:00.425Z,32.6
2022-12-24T08:20:07.524Z,24.8
2022-12-24T08:21:14.730Z,22.3
2022-12-24T08:22:22.119Z,23.8
2022-12-24T08:23:29.383Z,24.5
2022-12-24T08:24:36.392Z,23.8
2022-12-24T08:25:43.633Z,29.2
2022-12-24T08:26:50.816Z,30.1
2022-12-24T08:27:58.038Z,31.4
2022-12-24T08:29:05.139Z,32.1
2022-12-24T08:30:16.169Z,32.5
2022-12-24T08:31:19.452Z,29.6
2022-12-24T08:32:26.248Z,27.7
2022-12-24T08:33:33.337Z,29.4
2022-12-24T08:34:40.511Z,24.6
2022-12-24T08:35:47.774Z,25.7
2022-12-24T08:36:54.954Z,27.7
2022-12-24T08:38:01.994Z,25.3
2022-12-24T08:39:09.231Z,24.7
2022-12-24T08:40:16.422Z,24.5
2022-12-24T08:41:23.539Z,24.5
2022-12-24T08:42:30.485Z,23.8
2022-12-24T08:43:37.582Z,25.2
2022-12-24T08:44:44.715Z,25.2
2022-12-24T08:45:51.991Z,22.8
2022-12-24T08:46:59.084Z,22.9
2022-12-24T08:48:06.371Z,20.7
2022-12-24T08:49:13.329Z,21.9
2022-12-24T08:50:20.498Z,23.8
2022-12-24T08:51:27.322Z,22.1
2022-12-24T08:52:34.479Z,22.4
2022-12-24T08:53:41.695Z,22.1
2022-12-24T08:54:48.988Z,24.1
2022-12-24T08:55:56.519Z,24.4
2022-12-24T08:57:08.939Z,22.4
2022-12-24T08:58:16.002Z,20.7
2022-12-24T08:59:23.077Z,20.5
2022-12-24T09:00:29.988Z,19.2
2022-12-24T09:01:37.265Z,19
2022-12-24T09:02:44.446Z,19
2022-12-24T09:03:51.543Z,18.4
2022-12-24T09:04:58.566Z,17.5
2022-12-24T09:06:05.741Z,17
2022-12-24T09:07:12.870Z,16.2
2022-12-24T09:08:20.086Z,16
2022-12-24T09:09:27.506Z,16.5
2022-12-24T09:10:34.277Z,14.7
2022-12-24T09:11:41.305Z,16.6
2022-12-24T09:12:48.487Z,17
2022-12-24T09:13:55.616Z,17.8
2022-12-24T09:15:03.996Z,15.9
2022-12-24T09:16:10.302Z,14.7
2022-12-24T09:17:17.158Z,16.7
2022-12-24T09:18:24.335Z,15.4
2022-12-24T09:19:31.155Z,16
2022-12-24T09:20:41.535Z,16.4
2022-12-24T09:21:45.520Z,15.6
2022-12-24T09:22:52.626Z,17.7
2022-12-24T09:23:59.815Z,18.2
2022-12-24T09:25:06.964Z,16.2
2022-12-24T09:26:14.114Z,15.3
2022-12-24T09:27:23.796Z,16.7
2022-12-24T09:28:30.688Z,17.8
2022-12-24T09:29:37.956Z,17.7
2022-12-24T09:30:45.014Z,17
2022-12-24T09:32:02.587Z,18.6
2022-12-24T09:33:09.597Z,18.6
2022-12-24T09:34:16.766Z,19.3
2022-12-24T09:35:24.237Z,20.6
2022-12-24T09:36:31.299Z,19.5
2022-12-24T09:37:38.466Z,20.8
2022-12-24T09:38:45.649Z,20.1
2022-12-24T09:39:53.467Z,19.9
2022-12-24T09:41:07.024Z,20.6
2022-12-24T09:42:13.689Z,21.2
2022-12-24T09:43:31.300Z,21
2022-12-24T09:44:38.922Z,22.8
2022-12-24T09:45:54.392Z,21.6
2022-12-24T09:47:11.729Z,21.2
2022-12-24T09:48:29.253Z,22.1
2022-12-24T09:49:36.690Z,21.3
2022-12-24T09:50:44.510Z,24.4
2022-12-24T09:52:01.901Z,22.1
2022-12-24T09:53:09.102Z,23
2022-12-24T09:54:18.830Z,26.2
2022-12-24T09:55:28.309Z,23.3
2022-12-24T09:56:40.607Z,23.9
2022-12-24T09:57:48.585Z,23.9
2022-12-24T09:58:55.905Z,25.6
2022-12-24T10:00:03.148Z,23.3
2022-12-24T10:01:15.519Z,21.5
2022-12-24T10:02:22.656Z,22.2
2022-12-24T10:03:29.450Z,22.9
2022-12-24T10:04:36.713Z,23.5
2022-12-24T10:05:43.779Z,25.7
2022-12-24T10:07:01.120Z,23.3
2022-12-24T10:08:18.582Z,22.5
2022-12-24T10:09:34.040Z,22.1
2022-12-24T10:10:43.942Z,22.8
2022-12-24T10:11:53.843Z,22.4
2022-12-24T10:13:09.144Z,23
2022-12-24T10:14:21.637Z,25.5
2022-12-24T10:15:39.726Z,23.7
2022-12-24T10:16:58.016Z,22.4
2022-12-24T10:18:10.291Z,25.5
2022-12-24T10:19:19.923Z,22.9
2022-12-24T10:20:26.775Z,22.1
2022-12-24T10:21:33.941Z,22.6
2022-12-24T10:22:49.504Z,23.7
2022-12-24T10:23:57.257Z,23.8
2022-12-24T10:25:09.197Z,22.9
2022-12-24T10:26:24.161Z,24.5
2022-12-24T10:27:34.093Z,25.2
2022-12-24T10:28:43.217Z,26.6
2022-12-24T10:29:51.555Z,26.7
2022-12-24T10:31:06.594Z,28.4
2022-12-24T10:32:13.435Z,26
2022-12-24T10:33:29.377Z,27.8
2022-12-24T10:34:36.625Z,30.8
2022-12-24T10:35:46.389Z,31.1
2022-12-24T10:36:54.442Z,30.4
2022-12-24T10:38:01.708Z,31.6
2022-12-24T10:39:10.069Z,32.2
2022-12-24T10:40:20.264Z,33.9
2022-12-24T10:41:35.193Z,33.1
2022-12-24T10:42:48.320Z,32.3
2022-12-24T10:43:49.797Z,32.4
2022-12-24T10:45:02.830Z,34.2
2022-12-24T10:46:10.077Z,26.3
2022-12-24T10:47:17.377Z,25.2
2022-12-24T10:48:24.668Z,25.4
2022-12-24T10:49:31.731Z,24.8
2022-12-24T10:50:46.965Z,21.6
2022-12-24T10:51:59.277Z,21.7
2022-12-24T10:53:06.555Z,23.8
2022-12-24T10:54:26.455Z,21.7
2022-12-24T10:55:47.933Z,21.7
2022-12-24T10:56:55.268Z,20.7
2022-12-24T10:58:02.390Z,19.1
2022-12-24T10:59:09.592Z,16.5
2022-12-24T11:00:28.436Z,15.5
2022-12-24T11:01:38.090Z,19.1
2022-12-24T11:02:45.231Z,17.9
2022-12-24T11:03:52.426Z,16.5
2022-12-24T11:05:04.620Z,17.9
2022-12-24T11:06:16.904Z,16.3
2022-12-24T11:07:24.253Z,15.8
2022-12-24T11:08:31.352Z,15.5
2022-12-24T11:09:39.451Z,15.6
2022-12-24T11:10:46.232Z,15.1
2022-12-24T11:12:39.784Z,15.1
2022-12-24T11:13:46.732Z,14
2022-12-24T11:14:54.261Z,15
2022-12-24T11:16:06.828Z,14.7
2022-12-24T11:17:19.069Z,20.1
2022-12-24T11:21:08.164Z,17
2022-12-24T11:22:15.063Z,17.5
2022-12-24T11:23:22.149Z,17
2022-12-24T11:24:29.045Z,19.4
2022-12-24T11:25:38.746Z,11.3
2022-12-24T11:26:45.839Z,11.3
2022-12-24T11:27:53.488Z,11.6
2022-12-24T11:29:00.847Z,11.8
2022-12-24T11:30:11.847Z,9.3
2022-12-24T11:31:19.205Z,8.5
2022-12-24T11:32:26.035Z,8.1
2022-12-24T11:33:33.144Z,9.1
2022-12-24T11:34:48.007Z,9.2
2022-12-24T11:35:58.255Z,8.3
2022-12-24T11:37:14.057Z,8.7
2022-12-24T11:38:23.811Z,8.2
2022-12-24T11:39:30.645Z,7.4
2022-12-24T11:40:38.007Z,7.4
2022-12-24T11:41:45.052Z,8
2022-12-24T11:42:52.135Z,7
2022-12-24T11:43:59.378Z,6.7
2022-12-24T11:45:09.046Z,7.2
2022-12-24T11:50:17.964Z,7.2
2022-12-24T11:51:26.161Z,6.1
2022-12-24T11:52:33.378Z,5.6
2022-12-24T11:53:41.592Z,5.8
2022-12-24T11:54:58.939Z,7.2
2022-12-24T11:56:17.133Z,7.5
2022-12-24T11:57:29.258Z,6.2
2022-12-24T11:58:36.646Z,5.5
2022-12-24T11:59:46.874Z,8.8
2022-12-24T12:00:53.934Z,8.6
2022-12-24T12:02:11.274Z,19.9
2022-12-24T12:03:26.346Z,17.5
2022-12-24T12:04:34.530Z,14.4
2022-12-24T12:05:42.578Z,22.2
2022-12-24T12:06:49.622Z,20.5
2022-12-24T12:07:56.600Z,16.1
2022-12-24T12:09:11.999Z,10.7
2022-12-24T12:10:29.496Z,30
2022-12-24T12:11:36.623Z,18.8
2022-12-24T12:12:43.809Z,16.4
2022-12-24T12:13:50.976Z,10.1
2022-12-24T12:14:58.153Z,8.4
2022-12-24T12:16:05.530Z,13.8
2022-12-24T12:17:18.490Z,8.4
2022-12-24T12:18:31.506Z,12
2022-12-24T12:19:39.026Z,16.7
2022-12-24T12:20:50.228Z,8.6
2022-12-24T12:21:57.240Z,7.9
2022-12-24T12:23:04.487Z,13.7
2022-12-24T12:24:24.300Z,12.6
2022-12-24T12:25:28.537Z,10.6
2022-12-24T12:26:40.873Z,9.9
2022-12-24T12:27:47.902Z,10.8
2022-12-24T12:28:55.194Z,10.1
2022-12-24T12:30:07.488Z,9.9
2022-12-24T12:31:18.050Z,10.1
2022-12-24T12:41:16.677Z,14
2022-12-24T12:42:34.145Z,16.8
2022-12-24T12:43:41.245Z,13
2022-12-24T12:44:59.727Z,13.7
2022-12-24T12:54:00.301Z,13.7
2022-12-24T12:55:22.305Z,13.5
2022-12-24T12:56:30.154Z,12.3
2022-12-24T12:57:37.380Z,14.3
2022-12-24T12:58:44.580Z,14.9
2022-12-24T12:59:59.702Z,14.8
2022-12-24T13:01:07.084Z,13.8
2022-12-24T13:02:24.501Z,16.4
2022-12-24T13:03:37.796Z,20.3
2022-12-24T14:10:49.850Z,20.3
2022-12-24T14:11:59.738Z,14.1
2022-12-24T14:13:06.893Z,12.8
2022-12-24T14:14:24.315Z,35.4
2022-12-24T14:15:36.979Z,34.1
2022-12-24T14:20:21.266Z,34.1
2022-12-24T14:21:28.755Z,49.1
2022-12-24T14:22:35.846Z,45.2
2022-12-24T14:23:43.017Z,42.3
2022-12-24T14:24:55.336Z,42.3
2022-12-24T14:26:05.011Z,42.3
2022-12-24T14:27:13.167Z,42.3
2022-12-24T14:28:26.342Z,42.3
2022-12-24T14:29:33.432Z,135.2
2022-12-24T14:39:46.827Z,54.1
2022-12-24T14:40:54.003Z,37.9
2022-12-24T14:42:07.933Z,36.3
2022-12-24T14:43:25.624Z,32.9
2022-12-24T14:54:58.548Z,17
2022-12-24T14:56:05.708Z,17
2022-12-24T14:57:12.858Z,16.2
2022-12-24T14:58:28.115Z,15.9
2022-12-24T14:59:40.635Z,12.1
2022-12-24T15:14:40.384Z,12.1
2022-12-24T15:15:51.892Z,18.6
2022-12-24T15:16:54.788Z,20.6
2022-12-24T15:18:06.976Z,23.5
2022-12-24T15:20:13.543Z,23.5
2022-12-24T15:21:20.814Z,20.9
2022-12-24T15:22:33.933Z,20.9
2022-12-24T15:23:40.910Z,20.9
2022-12-24T15:24:48.111Z,20.9
2022-12-24T15:29:03.472Z,20.9
2022-12-24T15:30:07.576Z,20.9
2022-12-24T15:31:18.358Z,20.9
2022-12-24T15:32:25.046Z,20.8
2022-12-24T15:37:23.033Z,20.8
2022-12-24T15:38:29.877Z,20.8
2022-12-24T15:39:43.206Z,20.8
2022-12-24T15:40:58.572Z,20.8
2022-12-24T15:42:05.743Z,20.8
2022-12-24T15:46:12.402Z,27.4
2022-12-24T15:47:24.307Z,29.6
2022-12-24T15:48:31.209Z,28.4
2022-12-24T15:49:38.338Z,27.4
2022-12-24T16:01:19.035Z,27.4
2022-12-24T16:02:29.428Z,43.5
2022-12-24T16:03:41.266Z,45.1
2022-12-24T16:04:53.352Z,48.7
2022-12-24T16:06:00.604Z,54.3
2022-12-24T16:07:21.177Z,71.4
2022-12-24T16:08:28.399Z,75.4
2022-12-24T16:09:35.618Z,69.7
2022-12-24T16:10:46.121Z,57.8
2022-12-24T16:12:03.925Z,58.3
2022-12-24T16:13:16.015Z,58.4
2022-12-24T16:14:23.213Z,60
2022-12-24T16:15:30.685Z,64.5
2022-12-24T16:16:37.816Z,64.2
2022-12-24T16:17:44.943Z,64.2
2022-12-24T16:18:52.093Z,64.2
2022-12-24T16:19:59.244Z,64.2
2022-12-24T16:21:06.310Z,64.2
2022-12-24T16:22:13.134Z,87.1
2022-12-24T16:23:25.342Z,82.4
2022-12-24T16:24:37.467Z,86.9
2022-12-24T16:25:44.509Z,97.6
2022-12-24T16:26:51.705Z,94.9
2022-12-24T16:28:00.719Z,105.5
2022-12-24T16:29:06.012Z,101
2022-12-24T16:30:13.204Z,104.3
2022-12-24T16:31:20.478Z,102
2022-12-24T16:32:32.863Z,100
2022-12-24T16:33:40.017Z,97
2022-12-24T16:34:47.182Z,90.5
2022-12-24T16:35:55.144Z,93.5
2022-12-24T16:37:03.070Z,91.1
2022-12-24T16:38:10.239Z,88
2022-12-24T16:39:17.359Z,89.7
2022-12-24T16:40:28.128Z,83.6
2022-12-24T16:41:33.871Z,83.2
2022-12-24T16:43:18.758Z,83.2
2022-12-24T16:44:30.877Z,63.4
2022-12-24T16:45:38.044Z,63.2
2022-12-24T16:46:45.429Z,60.8
2022-12-24T16:47:52.412Z,60.5
2022-12-24T16:48:59.532Z,63.2
2022-12-24T16:50:06.757Z,63.2
2022-12-24T16:51:13.779Z,60.4
2022-12-24T16:52:20.980Z,61.6
2022-12-24T16:59:33.041Z,55
2022-12-24T17:00:40.381Z,41.3
2022-12-24T17:01:47.500Z,42
2022-12-24T17:02:54.830Z,40.8
2022-12-24T17:25:05.595Z,73.9
2022-12-24T17:26:15.082Z,88.8
2022-12-24T17:27:19.942Z,87.3
2022-12-24T17:28:27.033Z,92.8
2022-12-24T17:29:33.964Z,93.5
2022-12-24T17:30:41.189Z,79
2022-12-24T17:31:48.298Z,71.5
2022-12-24T17:32:55.663Z,72.4
2022-12-24T17:34:02.671Z,65.1
2022-12-24T17:39:33.335Z,65.1
2022-12-24T17:40:40.275Z,57.9
2022-12-24T17:41:47.439Z,58.4
2022-12-24T17:42:54.767Z,66.3
2022-12-24T17:44:01.793Z,58.2
2022-12-24T17:51:45.507Z,67.7
2022-12-24T17:52:50.327Z,64.6
2022-12-24T17:53:57.268Z,62.2
2022-12-24T17:55:04.439Z,63.6
2022-12-24T17:56:35.353Z,63.6
2022-12-24T17:57:42.649Z,61.2
2022-12-24T17:58:49.599Z,63.9
2022-12-24T17:59:56.727Z,60.3
2022-12-24T18:01:03.988Z,60.7
2022-12-24T18:02:53.977Z,60.7
2022-12-24T18:04:01.036Z,59.7
2022-12-24T18:05:08.091Z,59.8
2022-12-24T18:06:15.252Z,61.9
2022-12-24T18:07:22.405Z,61.3
2022-12-24T18:08:31.106Z,63.8
2022-12-24T18:09:38.011Z,66.8
2022-12-24T18:10:45.132Z,75.3
2022-12-24T18:11:52.505Z,75.4
2022-12-24T18:12:59.463Z,79.8
2022-12-24T18:14:16.630Z,99.3
2022-12-24T18:15:23.536Z,109.4
2022-12-24T18:16:30.923Z,110.5
2022-12-24T18:17:38.114Z,129.9
2022-12-24T18:18:45.196Z,151.5
2022-12-24T18:20:46.207Z,151.5
2022-12-24T18:21:47.274Z,177.9
2022-12-24T18:22:54.520Z,172.1
2022-12-24T18:24:01.669Z,149.7
2022-12-24T18:25:08.790Z,138.5
2022-12-24T18:26:22.799Z,142.3
2022-12-24T18:27:29.849Z,101.8
2022-12-24T18:28:36.623Z,106.1